createdAt,value
2023-04-29T00:01:38.391Z,98268.66
2023-04-29T00:03:43.657Z,98271.16
2023-04-29T00:05:48.884Z,98272.34
2023-04-29T00:07:53.974Z,98280.00
2023-04-29T00:09:58.981Z,98274.22
2023-04-29T00:12:04.011Z,98271.78
2023-04-29T00:14:09.106Z,98271.84
2023-04-29T00:16:14.362Z,98271.03
2023-04-29T00:18:22.195Z,98263.59
2023-04-29T00:20:27.346Z,98271.00
2023-04-29T00:22:32.742Z,98267.63
2023-04-29T00:24:37.799Z,98269.88
2023-04-29T00:26:43.955Z,98265.31
2023-04-29T00:28:49.253Z,98268.59
2023-04-29T00:30:54.350Z,98271.81
2023-04-29T00:32:59.401Z,98275.22
2023-04-29T00:35:07.892Z,98266.53
2023-04-29T00:37:12.938Z,98273.31
2023-04-29T00:39:18.455Z,98270.03
2023-04-29T00:41:24.176Z,98272.00
2023-04-29T00:43:29.577Z,98270.34
2023-04-29T00:45:34.640Z,98272.13
2023-04-29T00:47:40.064Z,98271.81
2023-04-29T00:49:45.455Z,98271.91
2023-04-29T00:51:53.421Z,98269.00
2023-04-29T00:53:58.647Z,98276.72
2023-04-29T00:56:04.855Z,98282.72
2023-04-29T00:58:10.148Z,98282.81
2023-04-29T01:00:16.761Z,98276.19
2023-04-29T01:02:22.583Z,98282.84
2023-04-29T01:04:29.565Z,98288.03
2023-04-29T01:06:47.689Z,98281.50
2023-04-29T01:09:11.318Z,98276.50
2023-04-29T01:11:23.451Z,98276.63
2023-04-29T01:13:45.271Z,98278.16
2023-04-29T01:15:59.036Z,98283.06
2023-04-29T01:18:13.354Z,98286.44
2023-04-29T01:20:19.011Z,98281.41
2023-04-29T01:22:24.088Z,98287.88
2023-04-29T01:24:31.873Z,98282.72
2023-04-29T01:26:37.833Z,98285.22
2023-04-29T01:28:57.222Z,98281.63
2023-04-29T01:31:09.902Z,98282.69
2023-04-29T01:33:26.162Z,98282.56
2023-04-29T01:35:49.575Z,98286.72
2023-04-29T01:38:04.322Z,98286.72
2023-04-29T01:40:19.228Z,98286.94
2023-04-29T01:42:42.902Z,98285.97
2023-04-29T01:44:54.030Z,98288.34
2023-04-29T01:47:04.042Z,98287.41
2023-04-29T01:49:16.447Z,98290.69
2023-04-29T01:51:21.982Z,98279.53
2023-04-29T01:53:27.428Z,98287.75
2023-04-29T01:55:35.109Z,98282.66
2023-04-29T01:57:58.235Z,98279.19
2023-04-29T02:00:22.545Z,98281.38
2023-04-29T02:02:30.644Z,98290.53
2023-04-29T02:04:46.304Z,98287.91
2023-04-29T02:06:52.441Z,98285.13
2023-04-29T02:08:57.487Z,98290.13
2023-04-29T02:11:05.143Z,98285.00
2023-04-29T02:13:15.573Z,98277.31
2023-04-29T02:15:21.609Z,98283.09
2023-04-29T02:17:26.941Z,98286.41
2023-04-29T02:19:32.043Z,98283.88
2023-04-29T02:21:40.105Z,98285.41
2023-04-29T02:23:45.201Z,98280.31
2023-04-29T02:25:50.476Z,98279.47
2023-04-29T02:27:58.157Z,98282.03
2023-04-29T02:30:04.983Z,98291.25
2023-04-29T02:32:10.224Z,98297.84
2023-04-29T02:34:16.597Z,98297.66
2023-04-29T02:36:21.685Z,98299.25
2023-04-29T02:38:29.267Z,98299.13
2023-04-29T02:40:34.284Z,98298.22
2023-04-29T02:42:39.320Z,98301.47
2023-04-29T02:44:46.945Z,98303.91
2023-04-29T02:46:52.040Z,98297.16
2023-04-29T02:48:57.253Z,98302.06
2023-04-29T02:51:02.353Z,98301.91
2023-04-29T02:53:10.474Z,98291.72
2023-04-29T02:55:15.628Z,98293.31
2023-04-29T02:57:21.210Z,98293.25
2023-04-29T02:59:26.643Z,98284.81
2023-04-29T03:01:34.529Z,98285.59
2023-04-29T03:03:40.412Z,98283.66
2023-04-29T03:05:46.041Z,98282.66
2023-04-29T03:07:51.542Z,98279.41
2023-04-29T03:09:57.049Z,98285.13
2023-04-29T03:12:03.110Z,98282.63
2023-04-29T03:14:08.787Z,98286.00
2023-04-29T03:16:14.421Z,98282.63
2023-04-29T03:18:22.234Z,98279.03
2023-04-29T03:20:27.489Z,98278.75
2023-04-29T03:22:32.688Z,98278.56
2023-04-29T03:24:37.946Z,98273.53
2023-04-29T03:26:43.349Z,98280.91
2023-04-29T03:28:50.481Z,98283.31
2023-04-29T03:30:56.955Z,98288.25
2023-04-29T03:33:02.548Z,98288.03
2023-04-29T03:35:15.570Z,98291.34
2023-04-29T03:37:34.243Z,98289.69
2023-04-29T03:39:52.985Z,98291.34
2023-04-29T03:41:58.488Z,98292.06
2023-04-29T03:44:03.843Z,98291.88
2023-04-29T03:46:09.311Z,98296.59
2023-04-29T03:48:14.912Z,98294.22
2023-04-29T03:50:22.818Z,98290.94
2023-04-29T03:52:28.801Z,98289.94
2023-04-29T03:54:40.002Z,98290.84
2023-04-29T03:56:45.276Z,98290.72
2023-04-29T03:58:51.528Z,98294.06
2023-04-29T04:00:58.483Z,98294.97
2023-04-29T04:03:12.271Z,98295.88
2023-04-29T04:05:19.685Z,98298.16
2023-04-29T04:07:31.805Z,98303.88
2023-04-29T04:10:14.925Z,98298.69
2023-04-29T04:12:20.113Z,98310.47
2023-04-29T04:14:25.591Z,98310.56
2023-04-29T04:16:30.714Z,98311.38
2023-04-29T04:18:35.913Z,98311.31
2023-04-29T04:20:41.318Z,98318.63
2023-04-29T04:22:50.956Z,98330.09
2023-04-29T04:25:00.936Z,98336.59
2023-04-29T04:27:06.094Z,98330.53
2023-04-29T04:29:15.592Z,98334.63
2023-04-29T04:31:53.076Z,98333.28
2023-04-29T04:34:00.009Z,98343.22
2023-04-29T04:36:07.432Z,98342.22
2023-04-29T04:38:15.633Z,98347.88
2023-04-29T04:40:21.091Z,98368.22
2023-04-29T04:42:46.115Z,98363.16
2023-04-29T04:44:53.209Z,98369.75
2023-04-29T04:47:09.600Z,98368.09
2023-04-29T04:49:27.622Z,98376.75
2023-04-29T04:51:33.197Z,98381.88
2023-04-29T04:53:42.220Z,98375.94
2023-04-29T04:55:55.998Z,98365.78
2023-04-29T04:58:02.520Z,98372.44
2023-04-29T05:00:09.803Z,98378.28
2023-04-29T05:02:14.956Z,98375.66
2023-04-29T05:04:20.179Z,98378.09
2023-04-29T05:06:25.793Z,98379.63
2023-04-29T05:08:30.898Z,98376.09
2023-04-29T05:10:44.690Z,98376.63
2023-04-29T05:12:50.649Z,98378.94
2023-04-29T05:14:57.532Z,98379.38
2023-04-29T05:17:06.740Z,98382.50
2023-04-29T05:19:12.069Z,98388.22
2023-04-29T05:21:18.918Z,98387.44
2023-04-29T05:23:25.449Z,98388.13
2023-04-29T05:25:30.540Z,98406.09
2023-04-29T05:27:38.661Z,98400.19
2023-04-29T05:29:47.473Z,98398.38
2023-04-29T05:31:52.818Z,98409.06
2023-04-29T05:33:58.138Z,98411.53
2023-04-29T05:36:03.743Z,98414.25
2023-04-29T05:38:11.057Z,98411.41
2023-04-29T05:40:19.453Z,98420.50
2023-04-29T05:42:25.358Z,98419.88
2023-04-29T05:44:33.007Z,98429.38
2023-04-29T05:46:38.452Z,98423.88
2023-04-29T05:48:43.505Z,98419.63
2023-04-29T05:50:50.378Z,98426.44
2023-04-29T05:52:56.937Z,98431.03
2023-04-29T05:55:03.404Z,98426.06
2023-04-29T05:57:08.724Z,98429.38
2023-04-29T05:59:13.744Z,98427.38
2023-04-29T06:01:22.504Z,98440.22
2023-04-29T06:03:28.071Z,98437.38
2023-04-29T06:05:50.423Z,98442.03
2023-04-29T06:08:11.081Z,98447.31
2023-04-29T06:10:28.904Z,98453.56
2023-04-29T06:12:34.667Z,98451.56
2023-04-29T06:14:39.743Z,98459.19
2023-04-29T06:16:47.533Z,98454.50
2023-04-29T06:18:52.579Z,98457.16
2023-04-29T06:20:57.589Z,98464.06
2023-04-29T06:23:02.818Z,98465.91
2023-04-29T06:25:08.823Z,98475.47
2023-04-29T06:27:25.198Z,98475.56
2023-04-29T06:29:30.822Z,98467.28
2023-04-29T06:31:35.924Z,98473.97
2023-04-29T06:33:45.630Z,98472.63
2023-04-29T06:35:50.975Z,98477.13
2023-04-29T06:38:11.520Z,98485.34
2023-04-29T06:40:34.872Z,98485.72
2023-04-29T06:42:46.810Z,98497.47
2023-04-29T06:45:11.791Z,98495.81
2023-04-29T06:47:20.289Z,98496.09
2023-04-29T06:49:53.130Z,98500.16
2023-04-29T06:52:02.289Z,98501.94
2023-04-29T06:54:07.843Z,98499.22
2023-04-29T06:58:19.026Z,98507.13
2023-04-29T07:00:24.301Z,98508.59
2023-04-29T07:02:33.228Z,98512.94
2023-04-29T07:04:38.757Z,98510.78
2023-04-29T07:06:47.372Z,98518.09
2023-04-29T07:08:54.783Z,98518.88
2023-04-29T07:11:01.926Z,98518.28
2023-04-29T07:13:07.585Z,98525.88
2023-04-29T07:15:13.625Z,98528.88
2023-04-29T07:17:18.989Z,98530.78
2023-04-29T07:19:25.462Z,98523.28
2023-04-29T07:21:31.434Z,98532.72
2023-04-29T07:23:39.154Z,98531.22
2023-04-29T07:25:44.736Z,98547.91
2023-04-29T07:27:49.774Z,98548.78
2023-04-29T07:29:54.829Z,98550.25
2023-04-29T07:32:00.100Z,98555.81
2023-04-29T07:34:06.201Z,98556.06
2023-04-29T07:36:11.624Z,98564.22
2023-04-29T07:38:16.637Z,98561.50
2023-04-29T07:40:24.827Z,98562.53
2023-04-29T07:42:34.661Z,98571.16
2023-04-29T07:44:40.108Z,98564.31
2023-04-29T07:46:45.291Z,98569.66
2023-04-29T07:48:50.802Z,98571.44
2023-04-29T07:50:55.898Z,98564.97
2023-04-29T07:53:02.281Z,98572.38
2023-04-29T07:55:08.683Z,98580.13
2023-04-29T07:57:16.517Z,98592.50
2023-04-29T07:59:21.548Z,98593.44
2023-04-29T08:01:27.249Z,98581.31
2023-04-29T08:03:32.868Z,98594.75
2023-04-29T08:05:39.434Z,98592.72
2023-04-29T08:07:44.572Z,98589.28
2023-04-29T08:09:49.608Z,98602.72
2023-04-29T08:11:55.167Z,98603.03
2023-04-29T08:14:02.877Z,98604.03
2023-04-29T08:16:09.721Z,98614.22
2023-04-29T08:18:14.856Z,98605.00
2023-04-29T08:20:20.051Z,98610.34
2023-04-29T08:22:25.581Z,98611.31
2023-04-29T08:24:31.193Z,98621.16
2023-04-29T08:26:36.846Z,98620.59
2023-04-29T08:28:41.996Z,98611.88
2023-04-29T08:30:49.937Z,98618.88
2023-04-29T08:32:55.022Z,98626.19
2023-04-29T08:35:00.107Z,98620.25
2023-04-29T08:37:06.062Z,98632.06
2023-04-29T08:39:11.102Z,98626.81
2023-04-29T08:41:17.001Z,98628.53
2023-04-29T08:43:23.213Z,98624.78
2023-04-29T08:45:31.931Z,98632.88
2023-04-29T08:47:40.852Z,98638.56
2023-04-29T08:49:46.073Z,98640.47
2023-04-29T08:51:53.438Z,98637.19
2023-04-29T08:53:59.755Z,98638.06
2023-04-29T08:56:22.208Z,98639.72
2023-04-29T08:58:31.038Z,98638.22
2023-04-29T09:00:37.368Z,98646.44
2023-04-29T09:02:53.154Z,98653.03
2023-04-29T09:05:07.690Z,98649.34
2023-04-29T09:07:15.273Z,98649.97
2023-04-29T09:09:21.308Z,98651.38
2023-04-29T09:11:26.553Z,98647.00
2023-04-29T09:13:34.090Z,98646.00
2023-04-29T09:15:41.558Z,98651.84
2023-04-29T09:17:51.829Z,98653.00
2023-04-29T09:19:57.277Z,98656.84
2023-04-29T09:22:02.734Z,98658.56
2023-04-29T09:24:08.666Z,98665.16
2023-04-29T09:26:13.921Z,98663.69
2023-04-29T09:28:19.562Z,98665.81
2023-04-29T09:30:27.034Z,98673.84
2023-04-29T09:32:32.092Z,98678.25
2023-04-29T09:34:41.476Z,98680.56
2023-04-29T09:36:48.650Z,98687.72
2023-04-29T09:38:58.315Z,98684.50
2023-04-29T09:41:12.235Z,98683.50
2023-04-29T09:43:19.159Z,98688.94
2023-04-29T09:45:37.764Z,98691.84
2023-04-29T09:47:42.966Z,98695.31
2023-04-29T09:49:50.589Z,98686.69
2023-04-29T09:51:57.563Z,98695.81
2023-04-29T09:54:04.437Z,98689.53
2023-04-29T09:56:10.113Z,98690.53
2023-04-29T09:58:37.303Z,98694.09
2023-04-29T10:00:43.343Z,98700.84
2023-04-29T10:02:51.230Z,98695.75
2023-04-29T10:05:00.989Z,98696.25
2023-04-29T10:07:06.789Z,98698.53
2023-04-29T10:09:16.225Z,98697.44
2023-04-29T10:11:22.053Z,98699.56
2023-04-29T10:13:28.517Z,98697.22
2023-04-29T10:15:43.320Z,98702.03
2023-04-29T10:17:52.362Z,98703.75
2023-04-29T10:20:06.435Z,98703.34
2023-04-29T10:22:15.880Z,98705.16
2023-04-29T10:24:22.104Z,98707.53
2023-04-29T10:26:32.433Z,98715.03
2023-04-29T10:28:40.358Z,98710.03
2023-04-29T10:30:48.274Z,98706.78
2023-04-29T10:32:54.882Z,98708.03
2023-04-29T10:35:03.985Z,98709.31
2023-04-29T10:37:09.823Z,98711.56
2023-04-29T10:39:26.913Z,98711.22
2023-04-29T10:41:48.021Z,98715.19
2023-04-29T10:43:53.554Z,98713.41
2023-04-29T10:46:30.926Z,98713.97
2023-04-29T10:48:35.972Z,98720.72
2023-04-29T10:51:05.712Z,98716.22
2023-04-29T10:53:11.217Z,98716.06
2023-04-29T10:55:16.205Z,98717.97
2023-04-29T10:57:25.107Z,98717.47
2023-04-29T10:59:48.347Z,98724.03
2023-04-29T11:01:55.808Z,98720.31
2023-04-29T11:04:05.512Z,98719.63
2023-04-29T11:06:15.030Z,98719.13
2023-04-29T11:08:26.708Z,98713.63
2023-04-29T11:10:39.792Z,98716.94
2023-04-29T11:12:45.484Z,98711.25
2023-04-29T11:14:55.807Z,98716.28
2023-04-29T11:17:04.674Z,98714.16
2023-04-29T11:19:12.509Z,98713.09
2023-04-29T11:21:20.405Z,98712.19
2023-04-29T11:23:28.590Z,98721.13
2023-04-29T11:25:33.880Z,98715.88
2023-04-29T11:27:42.829Z,98727.38
2023-04-29T11:29:49.430Z,98715.72
2023-04-29T11:32:02.904Z,98713.91
2023-04-29T11:34:08.931Z,98723.50
2023-04-29T11:36:15.375Z,98735.38
2023-04-29T11:38:27.562Z,98732.00
2023-04-29T11:40:32.578Z,98726.25
2023-04-29T11:42:39.099Z,98733.66
2023-04-29T11:44:44.104Z,98731.13
2023-04-29T11:46:49.828Z,98742.50
2023-04-29T11:48:55.393Z,98737.56
2023-04-29T11:51:02.716Z,98746.06
2023-04-29T11:53:07.968Z,98749.91
2023-04-29T11:55:16.334Z,98742.22
2023-04-29T11:57:21.435Z,98748.75
2023-04-29T11:59:27.193Z,98751.84
2023-04-29T12:01:32.322Z,98744.03
2023-04-29T12:03:37.876Z,98751.34
2023-04-29T12:05:43.162Z,98752.22
2023-04-29T12:07:48.231Z,98757.44
2023-04-29T12:09:53.860Z,98756.88
2023-04-29T12:12:01.779Z,98757.66
2023-04-29T12:14:08.351Z,98763.75
2023-04-29T12:16:14.106Z,98761.22
2023-04-29T12:18:23.659Z,98765.66
2023-04-29T12:20:29.535Z,98764.16
2023-04-29T12:22:35.261Z,98765.00
2023-04-29T12:24:42.136Z,98782.03
2023-04-29T12:26:49.559Z,98778.53
2023-04-29T12:29:01.943Z,98775.84
2023-04-29T12:31:07.155Z,98779.69
2023-04-29T12:33:12.628Z,98781.38
2023-04-29T12:35:19.423Z,98780.31
2023-04-29T12:37:26.156Z,98783.50
2023-04-29T12:39:33.879Z,98784.09
2023-04-29T12:41:44.348Z,98771.63
2023-04-29T12:43:49.425Z,98782.56
2023-04-29T12:45:58.961Z,98779.63
2023-04-29T12:48:08.988Z,98788.34
2023-04-29T12:50:20.496Z,98785.25
2023-04-29T12:52:25.532Z,98790.50
2023-04-29T12:54:30.843Z,98786.16
2023-04-29T12:56:36.228Z,98793.75
2023-04-29T12:58:42.092Z,98784.03
2023-04-29T13:00:47.227Z,98786.38
2023-04-29T13:02:55.324Z,98787.63
2023-04-29T13:05:01.322Z,98789.09
2023-04-29T13:07:07.035Z,98791.34
2023-04-29T13:09:18.639Z,98780.97
2023-04-29T13:11:24.692Z,98774.38
2023-04-29T13:13:29.904Z,98786.34
2023-04-29T13:15:36.202Z,98777.53
2023-04-29T13:17:41.762Z,98792.81
2023-04-29T13:19:51.823Z,98801.22
2023-04-29T13:21:57.184Z,98807.75
2023-04-29T13:24:02.198Z,98806.88
2023-04-29T13:26:09.043Z,98804.88
2023-04-29T13:28:14.685Z,98813.75
2023-04-29T13:30:20.201Z,98813.97
2023-04-29T13:32:25.876Z,98820.94
2023-04-29T13:34:30.937Z,98819.47
2023-04-29T13:36:38.815Z,98814.75
2023-04-29T13:38:44.910Z,98829.94
2023-04-29T13:40:51.638Z,98820.59
2023-04-29T13:43:05.033Z,98822.66
2023-04-29T13:45:15.542Z,98821.94
2023-04-29T13:47:26.243Z,98821.25
2023-04-29T13:49:55.990Z,98826.38
2023-04-29T13:52:30.580Z,98827.94
2023-04-29T13:59:30.669Z,98833.09
2023-04-29T14:01:26.075Z,98835.09
2023-04-29T14:03:35.590Z,98831.69
2023-04-29T14:05:42.003Z,98839.28
2023-04-29T14:07:49.689Z,98841.44
2023-04-29T14:09:54.725Z,98839.44
2023-04-29T14:11:59.977Z,98832.44
2023-04-29T14:14:05.026Z,98841.47
2023-04-29T14:16:11.797Z,98844.91
2023-04-29T14:18:16.860Z,98836.97
2023-04-29T14:20:22.142Z,98850.81
2023-04-29T14:22:27.558Z,98846.78
2023-04-29T14:24:35.166Z,98849.19
2023-04-29T14:26:40.239Z,98843.88
2023-04-29T14:28:45.339Z,98839.56
2023-04-29T14:30:50.432Z,98848.38
2023-04-29T14:32:55.454Z,98841.81
2023-04-29T14:35:00.965Z,98849.41
2023-04-29T14:37:06.024Z,98847.03
2023-04-29T14:39:11.225Z,98848.00
2023-04-29T14:41:18.877Z,98853.31
2023-04-29T14:43:24.235Z,98848.00
2023-04-29T14:45:29.273Z,98854.81
2023-04-29T14:47:34.666Z,98850.34
2023-04-29T14:49:39.731Z,98854.91
2023-04-29T14:51:44.771Z,98849.59
2023-04-29T14:53:49.963Z,98853.56
2023-04-29T14:55:55.561Z,98861.38
2023-04-29T14:58:05.351Z,98853.19
2023-04-29T15:00:12.727Z,98849.38
2023-04-29T15:02:18.089Z,98852.53
2023-04-29T15:04:23.133Z,98854.44
2023-04-29T15:06:28.745Z,98851.72
2023-04-29T15:08:34.458Z,98854.47
2023-04-29T15:10:39.549Z,98853.69
2023-04-29T15:12:45.109Z,98860.00
2023-04-29T15:14:53.698Z,98860.97
2023-04-29T15:16:58.932Z,98860.66
2023-04-29T15:19:04.365Z,98867.25
2023-04-29T15:21:09.669Z,98866.94
2023-04-29T15:23:15.258Z,98861.41
2023-04-29T15:25:21.197Z,98870.38
2023-04-29T15:27:26.879Z,98874.09
2023-04-29T15:29:32.806Z,98878.72
2023-04-29T15:31:41.285Z,98873.03
2023-04-29T15:33:46.677Z,98877.31
2023-04-29T15:35:51.746Z,98886.97
2023-04-29T15:37:57.617Z,98879.69
2023-04-29T15:40:04.441Z,98890.22
2023-04-29T15:42:09.638Z,98892.50
2023-04-29T15:44:15.095Z,98897.69
2023-04-29T15:46:20.306Z,98898.72
2023-04-29T15:48:28.399Z,98901.22
2023-04-29T15:50:33.420Z,98902.75
2023-04-29T15:52:38.862Z,98904.09
2023-04-29T15:54:43.894Z,98907.13
2023-04-29T15:56:49.100Z,98911.41
2023-04-29T15:58:54.897Z,98913.63
2023-04-29T16:01:00.336Z,98922.75
2023-04-29T16:03:06.133Z,98917.19
2023-04-29T16:05:14.069Z,98925.06
2023-04-29T16:07:20.608Z,98926.38
2023-04-29T16:09:26.119Z,98926.94
2023-04-29T16:11:31.129Z,98930.13
2023-04-29T16:13:36.891Z,98922.53
2023-04-29T16:15:41.967Z,98931.78
2023-04-29T16:17:47.453Z,98938.47
2023-04-29T16:19:52.708Z,98934.94
2023-04-29T16:22:00.397Z,98933.66
2023-04-29T16:24:06.250Z,98937.47
2023-04-29T16:26:11.729Z,98938.91
2023-04-29T16:28:17.775Z,98938.47
2023-04-29T16:30:22.816Z,98937.81
2023-04-29T16:32:28.932Z,98951.56
2023-04-29T16:34:34.017Z,98951.59
2023-04-29T16:36:39.519Z,98941.81
2023-04-29T16:38:47.603Z,98948.78
2023-04-29T16:40:52.705Z,98954.91
2023-04-29T16:42:57.984Z,98945.34
2023-04-29T16:45:04.228Z,98956.66
2023-04-29T16:47:09.438Z,98955.03
2023-04-29T16:49:14.971Z,98951.50
2023-04-29T16:51:20.388Z,98956.16
2023-04-29T16:53:25.520Z,98954.28
2023-04-29T16:55:33.539Z,98955.63
2023-04-29T16:57:38.598Z,98957.72
2023-04-29T16:59:43.627Z,98955.84
2023-04-29T17:01:48.800Z,98957.19
2023-04-29T17:03:54.217Z,98964.00
2023-04-29T17:05:59.269Z,98959.84
2023-04-29T17:08:05.985Z,98969.97
2023-04-29T17:10:12.458Z,98962.69
2023-04-29T17:12:20.086Z,98970.44
2023-04-29T17:14:25.496Z,98967.25
2023-04-29T17:16:30.775Z,98969.72
2023-04-29T17:18:36.111Z,98975.78
2023-04-29T17:20:42.247Z,98971.63
2023-04-29T17:22:47.745Z,98981.84
2023-04-29T17:24:53.416Z,98979.19
2023-04-29T17:26:59.659Z,98976.84
2023-04-29T17:29:07.571Z,98969.25
2023-04-29T17:31:12.639Z,98974.53
2023-04-29T17:33:17.856Z,98973.59
2023-04-29T17:35:23.187Z,98979.47
2023-04-29T17:37:30.415Z,98984.34
2023-04-29T17:39:36.455Z,98983.72
2023-04-29T17:41:41.476Z,98979.56
2023-04-29T17:43:47.303Z,98985.88
2023-04-29T17:45:55.129Z,98987.22
2023-04-29T17:48:00.299Z,98984.97
2023-04-29T17:50:05.682Z,98990.41
2023-04-29T17:52:11.120Z,98990.28
2023-04-29T17:54:16.507Z,98995.50
2023-04-29T17:56:23.433Z,98995.50
2023-04-29T17:58:30.043Z,98999.09
2023-04-29T18:00:35.181Z,98997.44
2023-04-29T18:02:42.813Z,99005.00
2023-04-29T18:04:48.389Z,99007.63
2023-04-29T18:06:53.507Z,99013.56
2023-04-29T18:08:58.565Z,99015.34
2023-04-29T18:11:03.588Z,99011.34
2023-04-29T18:13:08.628Z,99012.13
2023-04-29T18:15:16.684Z,99009.94
2023-04-29T18:17:21.876Z,99014.81
2023-04-29T18:19:29.634Z,99021.84
2023-04-29T18:21:34.738Z,99016.97
2023-04-29T18:23:40.850Z,99015.81
2023-04-29T18:25:46.301Z,99023.47
2023-04-29T18:27:52.736Z,99016.47
2023-04-29T18:30:02.218Z,99017.38
2023-04-29T18:32:08.456Z,99026.72
2023-04-29T18:34:13.536Z,99020.34
2023-04-29T18:36:21.453Z,99023.25
2023-04-29T18:38:27.824Z,99021.56
2023-04-29T18:40:32.876Z,99019.03
2023-04-29T18:42:38.036Z,99024.22
2023-04-29T18:44:43.036Z,99029.44
2023-04-29T18:46:48.056Z,99031.25
2023-04-29T18:48:53.062Z,99030.34
2023-04-29T18:51:03.989Z,99031.16
2023-04-29T18:53:11.918Z,99035.38
2023-04-29T18:55:16.935Z,99041.34
2023-04-29T18:57:22.076Z,99042.22
2023-04-29T18:59:27.105Z,99044.56
2023-04-29T19:01:32.322Z,99047.88
2023-04-29T19:03:37.352Z,99054.66
2023-04-29T19:05:42.937Z,99054.88
2023-04-29T19:07:48.238Z,99061.72
2023-04-29T19:09:56.176Z,99061.88
2023-04-29T19:12:03.777Z,99063.59
2023-04-29T19:14:08.818Z,99064.63
2023-04-29T19:16:14.352Z,99074.03
2023-04-29T19:18:21.482Z,99070.03
2023-04-29T19:20:27.177Z,99072.63
2023-04-29T19:22:32.406Z,99072.63
2023-04-29T19:24:39.023Z,99073.53
2023-04-29T19:26:47.004Z,99073.69
2023-04-29T19:28:52.708Z,99079.63
2023-04-29T19:30:58.460Z,99079.78
2023-04-29T19:33:04.442Z,99083.28
2023-04-29T19:35:11.996Z,99088.31
2023-04-29T19:37:18.248Z,99090.81
2023-04-29T19:39:23.407Z,99086.63
2023-04-29T19:41:28.933Z,99085.72
2023-04-29T19:43:36.519Z,99088.28
2023-04-29T19:45:41.666Z,99091.69
2023-04-29T19:47:48.666Z,99090.91
2023-04-29T19:49:54.618Z,99091.84
2023-04-29T19:52:00.126Z,99088.47
2023-04-29T19:54:05.142Z,99091.84
2023-04-29T19:56:10.238Z,99089.34
2023-04-29T19:58:15.397Z,99093.56
2023-04-29T20:00:23.432Z,99090.28
2023-04-29T20:02:28.869Z,99097.03
2023-04-29T20:04:34.964Z,99095.34
2023-04-29T20:06:40.364Z,99084.53
2023-04-29T20:08:45.692Z,99097.94
2023-04-29T20:10:51.094Z,99093.75
2023-04-29T20:12:56.436Z,99097.22
2023-04-29T20:15:01.771Z,99098.91
2023-04-29T20:17:09.682Z,99096.44
2023-04-29T20:19:14.743Z,99092.16
2023-04-29T20:21:20.033Z,99098.09
2023-04-29T20:23:25.092Z,99099.81
2023-04-29T20:25:30.553Z,99097.31
2023-04-29T20:27:35.873Z,99104.09
2023-04-29T20:29:41.491Z,99108.28
2023-04-29T20:31:46.903Z,99109.13
2023-04-29T20:33:54.486Z,99099.91
2023-04-29T20:36:05.645Z,99106.66
2023-04-29T20:38:11.012Z,99102.50
2023-04-29T20:40:16.831Z,99103.47
2023-04-29T20:42:22.609Z,99107.63
2023-04-29T20:44:27.941Z,99111.94
2023-04-29T20:46:33.067Z,99111.09
2023-04-29T20:48:38.682Z,99105.28
2023-04-29T20:50:46.604Z,99107.84
2023-04-29T20:52:52.862Z,99107.91
2023-04-29T20:54:58.883Z,99116.31
2023-04-29T20:57:05.817Z,99113.78
2023-04-29T20:59:11.183Z,99104.59
2023-04-29T21:01:16.516Z,99117.25
2023-04-29T21:03:22.749Z,99113.13
2023-04-29T21:05:27.856Z,99115.69
2023-04-29T21:07:35.737Z,99115.69
2023-04-29T21:09:41.016Z,99117.34
2023-04-29T21:11:46.231Z,99111.53
2023-04-29T21:13:52.493Z,99114.06
2023-04-29T21:15:57.572Z,99115.84
2023-04-29T21:18:02.870Z,99112.56
2023-04-29T21:20:10.834Z,99112.63
2023-04-29T21:22:15.841Z,99118.50
2023-04-29T21:24:23.655Z,99118.59
2023-04-29T21:26:29.123Z,99116.94
2023-04-29T21:28:34.479Z,99124.53
2023-04-29T21:30:39.553Z,99127.16
2023-04-29T21:32:44.899Z,99118.84
2023-04-29T21:34:50.041Z,99125.53
2023-04-29T21:36:55.076Z,99127.25
2023-04-29T21:39:00.148Z,99127.25
2023-04-29T21:41:10.098Z,99130.63
2023-04-29T21:43:15.638Z,99130.59
2023-04-29T21:45:20.931Z,99132.31
2023-04-29T21:47:26.351Z,99128.16
2023-04-29T21:49:31.967Z,99125.63
2023-04-29T21:51:37.812Z,99130.66
2023-04-29T21:53:42.918Z,99130.66
2023-04-29T21:55:48.048Z,99128.13
2023-04-29T21:57:55.887Z,99123.97
2023-04-29T22:00:00.949Z,99125.63
2023-04-29T22:02:14.764Z,99125.63
2023-04-29T22:04:19.902Z,99126.53
2023-04-29T22:06:25.227Z,99127.41
2023-04-29T22:08:30.658Z,99124.94
2023-04-29T22:10:35.774Z,99125.75
2023-04-29T22:12:40.801Z,99122.53
2023-04-29T22:14:48.700Z,99128.38
2023-04-29T22:16:53.744Z,99124.25
2023-04-29T22:18:58.852Z,99120.91
2023-04-29T22:21:04.073Z,99126.84
2023-04-29T22:23:09.075Z,99131.91
2023-04-29T22:25:14.067Z,99129.50
2023-04-29T22:27:19.217Z,99126.31
2023-04-29T22:29:24.969Z,99131.44
2023-04-29T22:31:32.599Z,99135.72
2023-04-29T22:33:38.898Z,99129.97
2023-04-29T22:35:43.928Z,99131.75
2023-04-29T22:37:49.179Z,99135.19
2023-04-29T22:39:54.532Z,99135.31
2023-04-29T22:41:59.864Z,99137.97
2023-04-29T22:44:05.288Z,99143.91
2023-04-29T22:46:10.383Z,99137.34
2023-04-29T22:48:18.520Z,99146.72
2023-04-29T22:50:23.792Z,99149.44
2023-04-29T22:52:29.084Z,99147.81
2023-04-29T22:54:34.247Z,99149.59
2023-04-29T22:56:39.281Z,99154.69
2023-04-29T22:58:44.554Z,99153.09
2023-04-29T23:00:53.054Z,99156.56
2023-04-29T23:02:58.080Z,99154.94
2023-04-29T23:05:06.911Z,99160.88
2023-04-29T23:07:11.995Z,99168.47
2023-04-29T23:09:17.569Z,99174.38
2023-04-29T23:11:22.857Z,99165.28
2023-04-29T23:13:27.884Z,99166.16
2023-04-29T23:15:33.628Z,99175.38
2023-04-29T23:17:39.959Z,99172.03
2023-04-29T23:19:46.448Z,99177.09
2023-04-29T23:21:54.065Z,99174.56
2023-04-29T23:23:59.070Z,99185.47
2023-04-29T23:26:04.203Z,99190.53
2023-04-29T23:28:09.448Z,99183.00
2023-04-29T23:30:15.185Z,99178.88
2023-04-29T23:32:20.836Z,99182.22
2023-04-29T23:34:26.566Z,99185.59
2023-04-29T23:36:31.572Z,99187.28
2023-04-29T23:38:39.149Z,99180.59
2023-04-29T23:40:44.400Z,99180.63
2023-04-29T23:42:49.423Z,99178.16
2023-04-29T23:44:54.694Z,99179.03
2023-04-29T23:46:59.709Z,99182.38
2023-04-29T23:49:04.717Z,99189.03
2023-04-29T23:51:09.995Z,99187.41
2023-04-29T23:53:15.933Z,99179.88
2023-04-29T23:55:23.922Z,99189.06
2023-04-29T23:57:28.952Z,99188.22
2023-04-29T23:59:33.952Z,99184.03
